createdAt,value
2023-05-11T00:01:49.734Z,11.30
2023-05-11T00:04:17.169Z,11.40
2023-05-11T00:06:44.067Z,11.30
2023-05-11T00:09:11.555Z,11.20
2023-05-11T00:11:38.582Z,11.20
2023-05-11T00:14:05.364Z,11.20
2023-05-11T00:16:32.233Z,11.20
2023-05-11T00:18:59.229Z,11.20
2023-05-11T00:21:26.454Z,11.20
2023-05-11T00:23:53.282Z,11.30
2023-05-11T00:26:20.100Z,11.20
2023-05-11T00:28:47.478Z,11.20
2023-05-11T00:31:14.310Z,11.20
2023-05-11T00:33:41.272Z,11.10
2023-05-11T00:36:08.161Z,11.20
2023-05-11T00:38:36.716Z,11.20
2023-05-11T00:41:03.557Z,11.30
2023-05-11T00:43:30.424Z,11.20
2023-05-11T00:45:57.311Z,11.20
2023-05-11T00:48:24.138Z,11.20
2023-05-11T00:50:51.146Z,11.10
2023-05-11T00:53:17.985Z,11.20
2023-05-11T00:55:45.044Z,11.10
2023-05-11T00:58:11.987Z,11.10
2023-05-11T01:00:39.331Z,11.40
2023-05-11T01:03:07.242Z,11.20
2023-05-11T01:06:11.627Z,11.10
2023-05-11T01:08:44.404Z,11.20
2023-05-11T01:11:28.552Z,11.10
2023-05-11T01:14:09.218Z,11.10
2023-05-11T01:16:40.267Z,11.30
2023-05-11T01:19:56.911Z,11.10
2023-05-11T01:22:34.026Z,11.10
2023-05-11T01:25:32.858Z,11.10
2023-05-11T01:28:10.102Z,11.10
2023-05-11T01:30:54.644Z,11.00
2023-05-11T01:33:27.845Z,11.10
2023-05-11T01:36:01.173Z,11.10
2023-05-11T01:38:32.785Z,11.10
2023-05-11T01:41:01.067Z,11.10
2023-05-11T01:43:30.379Z,11.00
2023-05-11T01:46:01.771Z,11.10
2023-05-11T01:48:32.966Z,11.00
2023-05-11T01:51:02.997Z,11.00
2023-05-11T01:53:33.077Z,11.00
2023-05-11T01:56:01.441Z,11.10
2023-05-11T01:58:30.150Z,11.10
2023-05-11T02:01:00.178Z,11.10
2023-05-11T02:03:28.847Z,11.10
2023-05-11T02:05:57.574Z,11.10
2023-05-11T02:08:26.644Z,11.00
2023-05-11T02:10:55.011Z,11.20
2023-05-11T02:13:23.146Z,11.00
2023-05-11T02:15:53.006Z,11.00
2023-05-11T02:18:20.573Z,11.10
2023-05-11T02:20:49.083Z,11.00
2023-05-11T02:23:18.159Z,11.00
2023-05-11T02:25:45.410Z,11.00
2023-05-11T02:28:12.522Z,10.90
2023-05-11T02:30:46.947Z,11.00
2023-05-11T02:33:31.263Z,11.00
2023-05-11T02:35:59.638Z,11.00
2023-05-11T02:38:34.420Z,11.20
2023-05-11T02:41:13.921Z,11.10
2023-05-11T02:43:48.220Z,11.00
2023-05-11T02:46:18.857Z,11.10
2023-05-11T02:48:51.963Z,11.00
2023-05-11T02:51:22.726Z,11.00
2023-05-11T02:53:56.076Z,11.10
2023-05-11T02:56:25.001Z,11.00
2023-05-11T02:58:54.506Z,10.90
2023-05-11T03:01:24.854Z,10.90
2023-05-11T03:03:52.988Z,10.90
2023-05-11T03:06:20.460Z,10.90
2023-05-11T03:08:47.911Z,11.00
2023-05-11T03:11:17.861Z,10.90
2023-05-11T03:13:46.890Z,10.90
2023-05-11T03:16:17.436Z,10.90
2023-05-11T03:18:46.193Z,10.90
2023-05-11T03:21:20.737Z,11.00
2023-05-11T03:23:48.653Z,11.10
2023-05-11T03:26:18.787Z,11.00
2023-05-11T03:28:47.213Z,10.90
2023-05-11T03:31:14.442Z,11.00
2023-05-11T03:33:41.511Z,10.90
2023-05-11T03:36:10.996Z,10.90
2023-05-11T03:38:38.982Z,10.90
2023-05-11T03:41:08.545Z,10.90
2023-05-11T03:43:38.943Z,10.90
2023-05-11T03:46:07.239Z,10.70
2023-05-11T03:48:34.747Z,10.90
2023-05-11T03:51:01.945Z,10.70
2023-05-11T03:53:30.258Z,10.80
2023-05-11T03:55:57.659Z,10.80
2023-05-11T03:58:24.740Z,10.80
2023-05-11T04:00:52.962Z,10.80
2023-05-11T04:03:19.992Z,10.70
2023-05-11T04:05:46.950Z,10.80
2023-05-11T04:08:14.374Z,10.70
2023-05-11T04:10:41.445Z,10.80
2023-05-11T04:13:08.226Z,10.90
2023-05-11T04:15:37.568Z,10.80
2023-05-11T04:18:04.552Z,10.80
2023-05-11T04:20:32.219Z,10.80
2023-05-11T04:22:59.558Z,10.80
2023-05-11T04:25:27.495Z,10.80
2023-05-11T04:27:54.392Z,11.00
2023-05-11T04:30:21.667Z,10.90
2023-05-11T04:32:48.769Z,10.80
2023-05-11T04:35:15.726Z,10.80
2023-05-11T04:37:42.779Z,10.80
2023-05-11T04:40:10.783Z,10.80
2023-05-11T04:42:40.628Z,10.80
2023-05-11T04:45:12.033Z,10.80
2023-05-11T04:47:39.027Z,10.80
2023-05-11T04:50:07.536Z,10.80
2023-05-11T04:52:35.822Z,10.80
2023-05-11T04:55:02.997Z,10.90
2023-05-11T04:57:29.864Z,10.80
2023-05-11T04:59:57.184Z,10.70
2023-05-11T05:02:24.045Z,10.80
2023-05-11T05:04:50.956Z,10.80
2023-05-11T05:07:17.855Z,10.80
2023-05-11T05:09:45.690Z,10.90
2023-05-11T05:12:14.896Z,10.80
2023-05-11T05:14:41.691Z,10.80
2023-05-11T05:17:08.552Z,10.80
2023-05-11T05:19:35.636Z,10.90
2023-05-11T05:22:02.903Z,10.70
2023-05-11T05:24:31.448Z,10.70
2023-05-11T05:26:58.285Z,10.60
2023-05-11T05:29:25.126Z,10.70
2023-05-11T05:31:52.269Z,10.70
2023-05-11T05:34:20.109Z,10.70
2023-05-11T05:36:47.608Z,10.60
2023-05-11T05:39:14.445Z,10.60
2023-05-11T05:41:42.527Z,10.70
2023-05-11T05:44:10.359Z,10.70
2023-05-11T05:46:38.343Z,10.60
2023-05-11T05:49:05.802Z,10.60
2023-05-11T05:51:32.835Z,10.70
2023-05-11T05:53:59.821Z,10.60
2023-05-11T05:56:27.100Z,10.60
2023-05-11T05:58:54.002Z,10.80
2023-05-11T06:01:21.943Z,10.70
2023-05-11T06:03:52.101Z,10.70
2023-05-11T06:06:19.068Z,10.80
2023-05-11T06:08:46.174Z,10.80
2023-05-11T06:11:13.015Z,10.50
2023-05-11T06:13:39.805Z,10.60
2023-05-11T06:16:06.743Z,10.70
2023-05-11T06:18:34.935Z,10.60
2023-05-11T06:21:03.790Z,10.60
2023-05-11T06:23:31.880Z,10.70
2023-05-11T06:25:58.918Z,10.60
2023-05-11T06:28:27.497Z,10.70
2023-05-11T06:30:59.355Z,10.70
2023-05-11T06:33:28.438Z,10.60
2023-05-11T06:35:56.245Z,10.70
2023-05-11T06:38:23.722Z,10.60
2023-05-11T06:40:53.786Z,10.70
2023-05-11T06:43:20.709Z,10.70
2023-05-11T06:45:49.018Z,10.70
2023-05-11T06:48:16.195Z,10.80
2023-05-11T06:50:43.103Z,10.60
2023-05-11T06:53:13.152Z,10.70
2023-05-11T06:55:39.997Z,10.50
2023-05-11T06:58:06.992Z,10.60
2023-05-11T07:00:34.372Z,10.60
2023-05-11T07:03:01.251Z,10.70
2023-05-11T07:05:28.126Z,10.60
2023-05-11T07:07:54.917Z,10.60
2023-05-11T07:10:21.797Z,10.60
2023-05-11T07:12:49.141Z,10.70
2023-05-11T07:15:15.972Z,10.70
2023-05-11T07:17:42.816Z,10.70
2023-05-11T07:20:10.081Z,10.70
2023-05-11T07:22:36.873Z,10.70
2023-05-11T07:25:04.771Z,10.70
2023-05-11T07:27:31.639Z,10.70
2023-05-11T07:29:58.623Z,10.80
2023-05-11T07:32:25.501Z,10.70
2023-05-11T07:34:52.306Z,10.80
2023-05-11T07:37:19.159Z,10.80
2023-05-11T07:39:45.938Z,10.70
2023-05-11T07:42:12.775Z,10.70
2023-05-11T07:44:39.609Z,10.80
2023-05-11T07:47:06.468Z,10.80
2023-05-11T07:49:43.074Z,11.00
2023-05-11T07:52:11.697Z,10.80
2023-05-11T07:54:40.276Z,10.80
2023-05-11T07:57:07.840Z,10.90
2023-05-11T07:59:34.669Z,10.80
2023-05-11T08:02:01.670Z,10.80
2023-05-11T08:04:30.092Z,10.80
2023-05-11T08:06:56.901Z,10.70
2023-05-11T08:09:23.732Z,10.80
2023-05-11T08:11:50.577Z,10.70
2023-05-11T08:14:17.636Z,10.80
2023-05-11T08:16:44.548Z,10.80
2023-05-11T08:19:13.083Z,10.80
2023-05-11T08:21:40.349Z,10.80
2023-05-11T08:24:07.325Z,10.80
2023-05-11T08:26:34.170Z,10.80
2023-05-11T08:29:00.950Z,10.70
2023-05-11T08:31:27.876Z,10.80
2023-05-11T08:33:54.867Z,10.70
2023-05-11T08:36:22.127Z,10.80
2023-05-11T08:38:49.040Z,10.90
2023-05-11T08:41:16.056Z,10.90
2023-05-11T08:43:45.676Z,10.90
2023-05-11T08:46:17.855Z,10.80
2023-05-11T08:48:45.164Z,10.80
2023-05-11T08:51:12.082Z,10.80
2023-05-11T08:53:39.025Z,11.00
2023-05-11T08:56:08.649Z,11.00
2023-05-11T08:58:37.509Z,11.00
2023-05-11T09:01:08.683Z,10.90
2023-05-11T09:03:37.114Z,10.80
2023-05-11T09:06:07.280Z,10.80
2023-05-11T09:08:38.563Z,10.80
2023-05-11T09:11:06.500Z,10.90
2023-05-11T09:13:33.523Z,10.90
2023-05-11T09:16:00.476Z,11.10
2023-05-11T09:18:27.665Z,10.90
2023-05-11T09:20:54.756Z,11.00
2023-05-11T09:23:29.356Z,10.90
2023-05-11T09:25:56.204Z,11.00
2023-05-11T09:28:27.211Z,11.00
2023-05-11T09:30:54.323Z,10.90
2023-05-11T09:33:24.072Z,10.90
2023-05-11T09:35:51.335Z,11.00
2023-05-11T09:38:23.152Z,11.00
2023-05-11T09:40:54.488Z,11.00
2023-05-11T09:43:26.932Z,11.00
2023-05-11T09:46:01.789Z,10.90
2023-05-11T09:48:32.978Z,10.90
2023-05-11T09:51:04.092Z,10.90
2023-05-11T09:53:40.804Z,10.80
2023-05-11T09:56:07.953Z,11.00
2023-05-11T09:58:55.492Z,11.10
2023-05-11T10:01:32.943Z,11.00
2023-05-11T10:04:21.214Z,11.00
2023-05-11T10:06:53.257Z,11.00
2023-05-11T10:09:25.739Z,10.90
2023-05-11T10:11:55.478Z,10.80
2023-05-11T10:14:24.909Z,10.90
2023-05-11T10:16:53.084Z,10.90
2023-05-11T10:19:20.243Z,10.90
2023-05-11T10:21:47.580Z,11.10
2023-05-11T10:24:15.040Z,10.90
2023-05-11T10:26:42.703Z,11.00
2023-05-11T10:29:10.607Z,11.20
2023-05-11T10:31:38.228Z,11.20
2023-05-11T10:34:06.852Z,11.20
2023-05-11T10:36:34.563Z,11.10
2023-05-11T10:39:01.352Z,11.20
2023-05-11T10:42:01.595Z,11.20
2023-05-11T10:45:06.142Z,11.10
2023-05-11T10:47:44.915Z,11.10
2023-05-11T10:50:50.632Z,11.10
2023-05-11T10:53:35.166Z,11.10
2023-05-11T10:56:35.286Z,11.10
2023-05-11T10:59:17.298Z,11.00
2023-05-11T11:01:45.636Z,11.10
2023-05-11T11:04:13.703Z,11.20
2023-05-11T11:06:42.722Z,11.20
2023-05-11T11:09:13.552Z,11.10
2023-05-11T11:11:43.258Z,11.10
2023-05-11T11:14:10.689Z,11.30
2023-05-11T11:16:39.037Z,11.20
2023-05-11T11:19:38.595Z,11.20
2023-05-11T11:22:05.845Z,11.30
2023-05-11T11:24:38.664Z,11.20
2023-05-11T11:27:06.826Z,11.20
2023-05-11T11:29:38.201Z,11.20
2023-05-11T11:32:20.300Z,11.30
2023-05-11T11:34:47.982Z,11.20
2023-05-11T11:37:16.645Z,11.30
2023-05-11T11:39:43.395Z,11.20
2023-05-11T11:42:33.691Z,11.20
2023-05-11T11:45:30.301Z,11.30
2023-05-11T11:48:13.350Z,11.30
2023-05-11T11:50:44.571Z,11.20
2023-05-11T11:53:13.589Z,11.30
2023-05-11T11:55:52.716Z,11.30
2023-05-11T11:58:41.609Z,11.20
2023-05-11T12:01:09.675Z,11.20
2023-05-11T12:03:37.740Z,11.20
2023-05-11T12:06:07.968Z,11.20
2023-05-11T12:08:36.124Z,11.20
2023-05-11T12:11:04.363Z,11.20
2023-05-11T12:13:31.726Z,11.20
2023-05-11T12:16:12.790Z,11.20
2023-05-11T12:18:40.756Z,11.20
2023-05-11T12:21:19.224Z,11.20
2023-05-11T12:23:56.202Z,11.10
2023-05-11T12:26:24.937Z,11.20
2023-05-11T12:28:52.800Z,11.10
2023-05-11T12:31:19.678Z,11.20
2023-05-11T12:33:51.382Z,11.20
2023-05-11T12:36:18.694Z,11.30
2023-05-11T12:38:46.509Z,11.30
2023-05-11T12:41:23.704Z,11.40
2023-05-11T12:43:51.615Z,11.60
2023-05-11T12:46:19.770Z,11.30
2023-05-11T12:48:51.557Z,11.30
2023-05-11T12:52:01.209Z,11.40
2023-05-11T12:54:30.402Z,11.30
2023-05-11T12:56:57.795Z,11.60
2023-05-11T13:00:05.485Z,11.40
2023-05-11T13:02:32.496Z,11.30
2023-05-11T13:04:59.839Z,11.40
2023-05-11T13:07:28.167Z,11.30
2023-05-11T13:10:00.486Z,11.20
2023-05-11T13:12:31.654Z,11.20
2023-05-11T13:15:09.454Z,11.20
2023-05-11T13:17:38.130Z,11.20
2023-05-11T13:20:29.699Z,11.20
2023-05-11T13:23:04.389Z,11.20
2023-05-11T13:25:32.586Z,11.20
2023-05-11T13:27:59.453Z,11.20
2023-05-11T13:30:26.270Z,11.20
2023-05-11T13:32:53.343Z,11.20
2023-05-11T13:35:20.371Z,11.10
2023-05-11T13:37:47.658Z,11.10
2023-05-11T13:40:14.525Z,11.20
2023-05-11T13:42:42.291Z,11.00
2023-05-11T13:45:09.449Z,11.10
2023-05-11T13:47:36.797Z,11.10
2023-05-11T13:50:04.685Z,11.10
2023-05-11T13:52:31.506Z,11.10
2023-05-11T13:54:58.290Z,11.10
2023-05-11T13:57:25.213Z,11.10
2023-05-11T13:59:52.290Z,11.20
2023-05-11T14:02:19.600Z,11.20
2023-05-11T14:04:46.464Z,11.30
2023-05-11T14:07:14.207Z,11.20
2023-05-11T14:09:42.380Z,11.30
2023-05-11T14:12:09.489Z,11.20
2023-05-11T14:14:36.378Z,11.30
2023-05-11T14:17:03.229Z,11.30
2023-05-11T14:19:30.134Z,11.20
2023-05-11T14:21:57.175Z,11.30
2023-05-11T14:24:24.002Z,11.20
2023-05-11T14:26:50.807Z,11.20
2023-05-11T14:29:17.622Z,11.30
2023-05-11T14:31:44.925Z,11.20
2023-05-11T14:34:11.772Z,11.20
2023-05-11T14:36:38.636Z,11.30
2023-05-11T14:39:05.471Z,11.30
2023-05-11T14:41:32.335Z,11.50
2023-05-11T14:43:59.138Z,11.30
2023-05-11T14:46:26.897Z,11.30
2023-05-11T14:48:53.887Z,11.40
2023-05-11T14:51:21.115Z,11.30
2023-05-11T14:53:47.990Z,11.20
2023-05-11T14:56:14.949Z,11.20
2023-05-11T14:58:41.843Z,11.10
2023-05-11T15:01:08.889Z,11.20
2023-05-11T15:03:37.271Z,11.30
2023-05-11T15:06:04.564Z,11.30
2023-05-11T15:08:32.217Z,11.20
2023-05-11T15:10:59.072Z,11.30
2023-05-11T15:13:25.925Z,11.20
2023-05-11T15:15:52.997Z,11.20
2023-05-11T15:18:19.976Z,11.40
2023-05-11T15:20:47.028Z,11.30
2023-05-11T15:23:17.058Z,11.30
2023-05-11T15:25:44.840Z,11.30
2023-05-11T15:28:12.169Z,11.30
2023-05-11T15:30:39.037Z,11.30
2023-05-11T15:33:05.924Z,11.30
2023-05-11T15:35:35.785Z,11.40
2023-05-11T15:38:03.565Z,11.40
2023-05-11T15:40:30.656Z,11.40
2023-05-11T15:42:58.754Z,11.40
2023-05-11T15:45:26.392Z,11.50
2023-05-11T15:47:54.165Z,11.30
2023-05-11T15:50:21.640Z,11.20
2023-05-11T15:52:48.748Z,11.30
2023-05-11T15:55:15.858Z,11.30
2023-05-11T15:57:42.738Z,11.30
2023-05-11T16:00:10.631Z,11.30
2023-05-11T16:02:37.594Z,11.30
2023-05-11T16:05:06.003Z,11.20
2023-05-11T16:07:32.864Z,11.20
2023-05-11T16:09:59.792Z,11.20
2023-05-11T16:12:26.670Z,11.30
2023-05-11T16:14:53.457Z,11.20
2023-05-11T16:17:20.635Z,11.20
2023-05-11T16:19:47.614Z,11.20
2023-05-11T16:22:14.435Z,11.20
2023-05-11T16:24:41.250Z,11.20
2023-05-11T16:27:08.114Z,11.20
2023-05-11T16:29:35.389Z,11.10
2023-05-11T16:32:02.349Z,11.10
2023-05-11T16:34:29.236Z,11.10
2023-05-11T16:36:58.574Z,11.10
2023-05-11T16:39:25.871Z,11.10
2023-05-11T16:41:52.756Z,11.10
2023-05-11T16:44:19.592Z,11.10
2023-05-11T16:46:47.296Z,11.10
2023-05-11T16:49:14.171Z,11.00
2023-05-11T16:51:41.582Z,11.00
2023-05-11T16:54:08.515Z,11.00
2023-05-11T16:56:35.347Z,11.10
2023-05-11T16:59:02.486Z,11.00
2023-05-11T17:01:29.301Z,11.00
2023-05-11T17:03:56.242Z,11.00
2023-05-11T17:06:24.726Z,11.00
2023-05-11T17:08:52.912Z,10.90
2023-05-11T17:11:21.621Z,10.90
2023-05-11T17:13:48.473Z,11.00
2023-05-11T17:16:15.543Z,11.10
2023-05-11T17:18:42.627Z,11.00
2023-05-11T17:21:09.789Z,11.10
2023-05-11T17:23:36.663Z,11.10
2023-05-11T17:26:08.048Z,10.90
2023-05-11T17:28:34.839Z,11.00
2023-05-11T17:31:08.800Z,11.10
2023-05-11T17:33:35.827Z,11.00
2023-05-11T17:36:03.995Z,11.10
2023-05-11T17:38:31.139Z,11.10
2023-05-11T17:41:04.834Z,11.20
2023-05-11T17:43:33.096Z,11.10
2023-05-11T17:46:00.355Z,10.90
2023-05-11T17:48:27.320Z,11.00
2023-05-11T17:50:54.180Z,10.90
2023-05-11T17:53:20.972Z,10.90
2023-05-11T17:55:47.789Z,10.70
2023-05-11T17:58:14.610Z,10.80
2023-05-11T18:00:41.449Z,10.80
2023-05-11T18:03:08.368Z,10.70
2023-05-11T18:05:47.582Z,10.70
2023-05-11T18:08:15.721Z,10.80
2023-05-11T18:10:42.575Z,10.80
2023-05-11T18:13:09.509Z,10.80
2023-05-11T18:15:36.388Z,10.80
2023-05-11T18:18:03.450Z,10.70
2023-05-11T18:20:30.768Z,10.70
2023-05-11T18:22:57.664Z,10.90
2023-05-11T18:25:24.697Z,10.70
2023-05-11T18:27:51.616Z,10.70
2023-05-11T18:30:18.915Z,10.70
2023-05-11T18:32:46.401Z,10.70
2023-05-11T18:35:13.237Z,10.70
2023-05-11T18:37:40.009Z,10.80
2023-05-11T18:40:07.709Z,10.70
2023-05-11T18:42:34.558Z,10.70
2023-05-11T18:45:01.605Z,10.70
2023-05-11T18:47:28.425Z,10.70
2023-05-11T18:49:55.282Z,10.80
2023-05-11T18:52:22.066Z,10.60
2023-05-11T18:54:48.861Z,10.60
2023-05-11T18:57:18.747Z,10.60
2023-05-11T18:59:45.584Z,10.60
2023-05-11T19:02:12.585Z,10.70
2023-05-11T19:04:39.449Z,10.60
2023-05-11T19:07:06.577Z,10.60
2023-05-11T19:09:34.822Z,10.60
2023-05-11T19:12:02.081Z,10.60
2023-05-11T19:14:29.615Z,10.60
2023-05-11T19:16:56.522Z,10.60
2023-05-11T19:19:23.382Z,10.70
2023-05-11T19:21:50.701Z,10.60
2023-05-11T19:24:17.510Z,10.60
2023-05-11T19:26:52.247Z,10.60
2023-05-11T19:29:25.648Z,10.50
2023-05-11T19:31:53.400Z,10.50
2023-05-11T19:34:20.219Z,10.50
2023-05-11T19:36:46.983Z,10.40
2023-05-11T19:39:14.868Z,10.70
2023-05-11T19:41:41.767Z,10.50
2023-05-11T19:44:08.757Z,10.50
2023-05-11T19:46:35.869Z,10.50
2023-05-11T19:49:02.719Z,10.40
2023-05-11T19:51:29.496Z,10.50
2023-05-11T19:53:56.374Z,10.50
2023-05-11T19:56:23.224Z,10.40
2023-05-11T19:58:50.439Z,10.50
2023-05-11T20:01:17.338Z,10.40
2023-05-11T20:03:44.419Z,10.40
2023-05-11T20:06:11.405Z,10.50
2023-05-11T20:08:38.202Z,10.40
2023-05-11T20:11:05.206Z,10.40
2023-05-11T20:13:32.045Z,10.40
2023-05-11T20:15:59.553Z,10.30
2023-05-11T20:18:26.892Z,10.30
2023-05-11T20:20:53.667Z,10.40
2023-05-11T20:23:20.505Z,10.30
2023-05-11T20:25:47.333Z,10.30
2023-05-11T20:28:14.466Z,10.30
2023-05-11T20:30:41.287Z,10.30
2023-05-11T20:35:37.993Z,10.40
2023-05-11T20:38:04.829Z,10.30
2023-05-11T20:40:31.677Z,10.20
2023-05-11T20:42:58.478Z,10.30
2023-05-11T20:45:25.436Z,10.40
2023-05-11T20:47:52.346Z,10.30
2023-05-11T20:50:19.400Z,10.30
2023-05-11T20:52:46.590Z,10.20
2023-05-11T20:55:13.549Z,10.20
2023-05-11T20:57:40.461Z,10.30
2023-05-11T21:00:08.072Z,10.20
2023-05-11T21:02:35.139Z,10.20
2023-05-11T21:05:02.536Z,10.40
2023-05-11T21:07:29.924Z,10.20
2023-05-11T21:09:56.821Z,10.20
2023-05-11T21:12:23.680Z,10.20
2023-05-11T21:14:50.496Z,10.10
2023-05-11T21:17:17.398Z,10.10
2023-05-11T21:19:44.252Z,10.20
2023-05-11T21:22:11.087Z,10.10
2023-05-11T21:24:37.990Z,10.20
2023-05-11T21:27:05.141Z,10.10
2023-05-11T21:29:31.943Z,10.10
2023-05-11T21:31:58.777Z,10.10
2023-05-11T21:34:25.547Z,10.10
2023-05-11T21:36:52.388Z,10.10
2023-05-11T21:39:19.292Z,10.20
2023-05-11T21:41:46.141Z,10.20
2023-05-11T21:44:12.946Z,10.10
2023-05-11T21:46:39.893Z,10.10
2023-05-11T21:49:06.735Z,10.10
2023-05-11T21:51:33.551Z,10.10
2023-05-11T21:54:00.398Z,10.10
2023-05-11T21:56:27.261Z,10.10
2023-05-11T21:58:54.075Z,10.10
2023-05-11T22:01:20.978Z,10.10
2023-05-11T22:03:47.939Z,10.10
2023-05-11T22:06:15.261Z,10.10
2023-05-11T22:08:44.806Z,10.10
2023-05-11T22:11:11.620Z,10.10
2023-05-11T22:13:38.460Z,10.00
2023-05-11T22:16:05.915Z,10.00
2023-05-11T22:18:33.047Z,10.10
2023-05-11T22:20:59.902Z,10.10
2023-05-11T22:23:26.884Z,10.00
2023-05-11T22:25:53.708Z,10.00
2023-05-11T22:28:20.493Z,10.10
2023-05-11T22:30:47.361Z,10.00
2023-05-11T22:33:14.140Z,10.00
2023-05-11T22:35:41.075Z,10.00
2023-05-11T22:38:07.961Z,10.00
2023-05-11T22:40:34.870Z,10.00
2023-05-11T22:43:01.643Z,10.00
2023-05-11T22:45:28.652Z,10.00
2023-05-11T22:47:55.543Z,9.90
2023-05-11T22:50:22.546Z,9.90
2023-05-11T22:52:49.453Z,10.00
2023-05-11T22:55:16.333Z,10.00
2023-05-11T22:57:44.025Z,10.00
2023-05-11T23:00:12.119Z,10.00
2023-05-11T23:02:39.099Z,10.00
2023-05-11T23:05:06.403Z,10.00
2023-05-11T23:07:33.436Z,10.00
2023-05-11T23:10:00.423Z,10.00
2023-05-11T23:12:27.353Z,10.00
2023-05-11T23:14:54.149Z,10.00
2023-05-11T23:17:21.003Z,10.00
2023-05-11T23:19:48.019Z,10.00
2023-05-11T23:22:15.141Z,10.10
2023-05-11T23:24:42.016Z,10.10
2023-05-11T23:27:09.248Z,10.00
2023-05-11T23:29:36.126Z,10.00
2023-05-11T23:32:03.959Z,10.00
2023-05-11T23:34:30.886Z,10.00
2023-05-11T23:36:57.788Z,10.10
2023-05-11T23:39:24.674Z,9.90
2023-05-11T23:41:51.526Z,10.00
2023-05-11T23:44:18.303Z,10.00
2023-05-11T23:46:45.317Z,10.00
2023-05-11T23:49:12.195Z,10.00
2023-05-11T23:51:39.024Z,10.00
2023-05-11T23:54:06.710Z,10.00
2023-05-11T23:56:33.556Z,10.00
2023-05-11T23:59:00.446Z,10.10
